sensor_id;sensor_type;location;lat;lon;timestamp;P1;durP1;ratioP1;P2;durP2;ratioP2
3347;SDS011;1687;49.540;8.574;2023-05-31T00:02:24;34.13;;;2.67;;
3347;SDS011;1687;49.540;8.574;2023-05-31T00:04:50;8.23;;;2.17;;
3347;SDS011;1687;49.540;8.574;2023-05-31T00:07:15;11.20;;;3.40;;
3347;SDS011;1687;49.540;8.574;2023-05-31T00:09:41;6.13;;;2.13;;
3347;SDS011;1687;49.540;8.574;2023-05-31T00:12:07;6.27;;;2.47;;
3347;SDS011;1687;49.540;8.574;2023-05-31T00:14:33;8.23;;;1.90;;
3347;SDS011;1687;49.540;8.574;2023-05-31T00:16:59;6.43;;;2.33;;
3347;SDS011;1687;49.540;8.574;2023-05-31T00:19:24;8.60;;;2.20;;
3347;SDS011;1687;49.540;8.574;2023-05-31T00:21:50;3.50;;;2.23;;
3347;SDS011;1687;49.540;8.574;2023-05-31T00:24:16;6.63;;;2.23;;
3347;SDS011;1687;49.540;8.574;2023-05-31T00:26:42;5.37;;;2.03;;
3347;SDS011;1687;49.540;8.574;2023-05-31T00:29:07;7.23;;;2.40;;
3347;SDS011;1687;49.540;8.574;2023-05-31T00:31:33;3.73;;;2.00;;
3347;SDS011;1687;49.540;8.574;2023-05-31T00:33:59;5.43;;;2.67;;
3347;SDS011;1687;49.540;8.574;2023-05-31T00:36:25;6.43;;;1.97;;
3347;SDS011;1687;49.540;8.574;2023-05-31T00:38:50;9.07;;;2.40;;
3347;SDS011;1687;49.540;8.574;2023-05-31T00:41:16;7.90;;;2.70;;
3347;SDS011;1687;49.540;8.574;2023-05-31T00:43:42;8.40;;;2.57;;
3347;SDS011;1687;49.540;8.574;2023-05-31T00:46:09;4.73;;;2.27;;
3347;SDS011;1687;49.540;8.574;2023-05-31T00:48:46;11.63;;;2.60;;
3347;SDS011;1687;49.540;8.574;2023-05-31T00:51:11;7.40;;;2.17;;
3347;SDS011;1687;49.540;8.574;2023-05-31T00:53:37;12.73;;;2.10;;
3347;SDS011;1687;49.540;8.574;2023-05-31T00:56:04;14.63;;;2.43;;
3347;SDS011;1687;49.540;8.574;2023-05-31T00:58:30;4.43;;;2.00;;
3347;SDS011;1687;49.540;8.574;2023-05-31T01:00:59;11.83;;;1.90;;
3347;SDS011;1687;49.540;8.574;2023-05-31T01:03:25;10.70;;;3.27;;
3347;SDS011;1687;49.540;8.574;2023-05-31T01:05:51;5.87;;;2.23;;
3347;SDS011;1687;49.540;8.574;2023-05-31T01:08:17;4.10;;;1.93;;
3347;SDS011;1687;49.540;8.574;2023-05-31T01:10:43;6.47;;;2.20;;
3347;SDS011;1687;49.540;8.574;2023-05-31T01:18:26;6.53;;;2.30;;
3347;SDS011;1687;49.540;8.574;2023-05-31T01:20:58;9.83;;;3.70;;
3347;SDS011;1687;49.540;8.574;2023-05-31T01:26:30;8.10;;;3.47;;
3347;SDS011;1687;49.540;8.574;2023-05-31T01:29:21;10.13;;;3.13;;
3347;SDS011;1687;49.540;8.574;2023-05-31T01:31:50;6.30;;;2.70;;
3347;SDS011;1687;49.540;8.574;2023-05-31T01:34:16;7.13;;;2.47;;
3347;SDS011;1687;49.540;8.574;2023-05-31T01:36:42;5.90;;;2.13;;
3347;SDS011;1687;49.540;8.574;2023-05-31T01:39:07;9.83;;;2.20;;
3347;SDS011;1687;49.540;8.574;2023-05-31T01:41:38;7.00;;;2.10;;
3347;SDS011;1687;49.540;8.574;2023-05-31T01:44:06;11.77;;;2.50;;
3347;SDS011;1687;49.540;8.574;2023-05-31T01:46:33;4.20;;;2.00;;
3347;SDS011;1687;49.540;8.574;2023-05-31T01:48:59;4.97;;;2.33;;
3347;SDS011;1687;49.540;8.574;2023-05-31T01:51:26;8.50;;;2.13;;
3347;SDS011;1687;49.540;8.574;2023-05-31T01:53:55;4.07;;;1.60;;
3347;SDS011;1687;49.540;8.574;2023-05-31T01:56:21;10.17;;;2.33;;
3347;SDS011;1687;49.540;8.574;2023-05-31T01:58:50;4.70;;;2.17;;
3347;SDS011;1687;49.540;8.574;2023-05-31T02:01:17;4.10;;;1.60;;
3347;SDS011;1687;49.540;8.574;2023-05-31T02:03:44;8.17;;;2.37;;
3347;SDS011;1687;49.540;8.574;2023-05-31T02:06:10;5.17;;;1.97;;
3347;SDS011;1687;49.540;8.574;2023-05-31T02:08:37;3.80;;;1.67;;
3347;SDS011;1687;49.540;8.574;2023-05-31T02:11:03;5.00;;;2.30;;
3347;SDS011;1687;49.540;8.574;2023-05-31T02:13:30;10.10;;;2.37;;
3347;SDS011;1687;49.540;8.574;2023-05-31T02:15:56;3.70;;;1.90;;
3347;SDS011;1687;49.540;8.574;2023-05-31T02:18:22;28.37;;;2.30;;
3347;SDS011;1687;49.540;8.574;2023-05-31T02:20:51;6.30;;;1.87;;
3347;SDS011;1687;49.540;8.574;2023-05-31T02:23:20;4.20;;;2.17;;
3347;SDS011;1687;49.540;8.574;2023-05-31T02:25:47;9.10;;;2.80;;
3347;SDS011;1687;49.540;8.574;2023-05-31T02:28:14;6.60;;;2.17;;
3347;SDS011;1687;49.540;8.574;2023-05-31T02:30:40;4.93;;;2.00;;
3347;SDS011;1687;49.540;8.574;2023-05-31T02:33:07;8.00;;;3.00;;
3347;SDS011;1687;49.540;8.574;2023-05-31T02:35:33;6.47;;;2.13;;
3347;SDS011;1687;49.540;8.574;2023-05-31T02:37:59;5.93;;;1.90;;
3347;SDS011;1687;49.540;8.574;2023-05-31T02:40:26;5.47;;;2.60;;
3347;SDS011;1687;49.540;8.574;2023-05-31T02:42:52;4.20;;;2.07;;
3347;SDS011;1687;49.540;8.574;2023-05-31T02:45:18;4.90;;;2.17;;
3347;SDS011;1687;49.540;8.574;2023-05-31T02:47:44;10.90;;;2.80;;
3347;SDS011;1687;49.540;8.574;2023-05-31T02:50:09;9.70;;;2.30;;
3347;SDS011;1687;49.540;8.574;2023-05-31T02:52:36;6.93;;;2.23;;
3347;SDS011;1687;49.540;8.574;2023-05-31T02:55:03;6.10;;;2.43;;
3347;SDS011;1687;49.540;8.574;2023-05-31T02:57:30;6.30;;;2.90;;
3347;SDS011;1687;49.540;8.574;2023-05-31T02:59:57;10.37;;;2.83;;
3347;SDS011;1687;49.540;8.574;2023-05-31T03:02:37;4.87;;;1.90;;
3347;SDS011;1687;49.540;8.574;2023-05-31T03:05:04;5.57;;;1.90;;
3347;SDS011;1687;49.540;8.574;2023-05-31T03:07:31;3.67;;;1.70;;
3347;SDS011;1687;49.540;8.574;2023-05-31T03:09:58;3.50;;;2.03;;
3347;SDS011;1687;49.540;8.574;2023-05-31T03:12:24;6.90;;;2.57;;
3347;SDS011;1687;49.540;8.574;2023-05-31T03:14:50;5.50;;;2.27;;
3347;SDS011;1687;49.540;8.574;2023-05-31T03:17:15;4.93;;;1.90;;
3347;SDS011;1687;49.540;8.574;2023-05-31T03:19:41;6.30;;;2.40;;
3347;SDS011;1687;49.540;8.574;2023-05-31T03:22:07;5.00;;;1.70;;
3347;SDS011;1687;49.540;8.574;2023-05-31T03:24:32;4.13;;;1.87;;
3347;SDS011;1687;49.540;8.574;2023-05-31T03:26:58;3.63;;;1.57;;
3347;SDS011;1687;49.540;8.574;2023-05-31T03:29:24;8.03;;;1.90;;
3347;SDS011;1687;49.540;8.574;2023-05-31T03:31:49;5.70;;;2.07;;
3347;SDS011;1687;49.540;8.574;2023-05-31T03:34:15;16.00;;;2.77;;
3347;SDS011;1687;49.540;8.574;2023-05-31T03:36:41;5.20;;;2.40;;
3347;SDS011;1687;49.540;8.574;2023-05-31T03:39:06;3.30;;;1.83;;
3347;SDS011;1687;49.540;8.574;2023-05-31T03:41:32;6.90;;;2.80;;
3347;SDS011;1687;49.540;8.574;2023-05-31T03:43:58;4.57;;;1.83;;
3347;SDS011;1687;49.540;8.574;2023-05-31T03:46:23;9.87;;;2.83;;
3347;SDS011;1687;49.540;8.574;2023-05-31T03:48:50;5.63;;;2.13;;
3347;SDS011;1687;49.540;8.574;2023-05-31T03:51:16;6.10;;;2.50;;
3347;SDS011;1687;49.540;8.574;2023-05-31T03:53:41;6.20;;;2.03;;
3347;SDS011;1687;49.540;8.574;2023-05-31T03:56:07;8.50;;;1.67;;
3347;SDS011;1687;49.540;8.574;2023-05-31T03:58:33;6.50;;;2.53;;
3347;SDS011;1687;49.540;8.574;2023-05-31T04:00:58;6.20;;;2.53;;
3347;SDS011;1687;49.540;8.574;2023-05-31T04:03:24;5.10;;;2.07;;
3347;SDS011;1687;49.540;8.574;2023-05-31T04:05:50;4.80;;;2.10;;
3347;SDS011;1687;49.540;8.574;2023-05-31T04:08:15;9.13;;;2.80;;
3347;SDS011;1687;49.540;8.574;2023-05-31T04:10:42;5.20;;;1.83;;
3347;SDS011;1687;49.540;8.574;2023-05-31T04:13:07;6.03;;;2.17;;
3347;SDS011;1687;49.540;8.574;2023-05-31T04:15:33;7.40;;;2.50;;
3347;SDS011;1687;49.540;8.574;2023-05-31T04:18:00;5.77;;;2.53;;
3347;SDS011;1687;49.540;8.574;2023-05-31T04:20:26;8.77;;;2.27;;
3347;SDS011;1687;49.540;8.574;2023-05-31T04:22:52;9.13;;;3.30;;
3347;SDS011;1687;49.540;8.574;2023-05-31T04:25:18;6.03;;;2.37;;
3347;SDS011;1687;49.540;8.574;2023-05-31T04:27:45;10.33;;;2.33;;
3347;SDS011;1687;49.540;8.574;2023-05-31T04:30:12;8.10;;;2.30;;
3347;SDS011;1687;49.540;8.574;2023-05-31T04:32:39;5.87;;;2.50;;
3347;SDS011;1687;49.540;8.574;2023-05-31T04:35:05;5.97;;;2.57;;
3347;SDS011;1687;49.540;8.574;2023-05-31T04:37:33;4.07;;;2.10;;
3347;SDS011;1687;49.540;8.574;2023-05-31T04:40:00;7.90;;;2.47;;
3347;SDS011;1687;49.540;8.574;2023-05-31T04:42:28;7.17;;;2.47;;
3347;SDS011;1687;49.540;8.574;2023-05-31T04:44:54;10.47;;;2.53;;
3347;SDS011;1687;49.540;8.574;2023-05-31T04:47:25;5.53;;;2.77;;
3347;SDS011;1687;49.540;8.574;2023-05-31T04:49:57;12.10;;;2.43;;
3347;SDS011;1687;49.540;8.574;2023-05-31T04:52:24;8.97;;;2.27;;
3347;SDS011;1687;49.540;8.574;2023-05-31T04:54:54;9.43;;;2.50;;
3347;SDS011;1687;49.540;8.574;2023-05-31T04:57:20;8.23;;;2.50;;
3347;SDS011;1687;49.540;8.574;2023-05-31T04:59:47;6.07;;;2.27;;
3347;SDS011;1687;49.540;8.574;2023-05-31T05:02:13;8.67;;;3.07;;
3347;SDS011;1687;49.540;8.574;2023-05-31T05:04:39;4.83;;;2.03;;
3347;SDS011;1687;49.540;8.574;2023-05-31T05:07:05;8.53;;;2.30;;
3347;SDS011;1687;49.540;8.574;2023-05-31T05:09:31;6.10;;;2.47;;
3347;SDS011;1687;49.540;8.574;2023-05-31T05:11:57;10.53;;;2.33;;
3347;SDS011;1687;49.540;8.574;2023-05-31T05:14:23;6.20;;;2.33;;
3347;SDS011;1687;49.540;8.574;2023-05-31T05:16:48;9.40;;;2.40;;
3347;SDS011;1687;49.540;8.574;2023-05-31T05:19:14;7.60;;;2.50;;
3347;SDS011;1687;49.540;8.574;2023-05-31T05:21:40;21.53;;;2.97;;
3347;SDS011;1687;49.540;8.574;2023-05-31T05:24:06;5.33;;;2.43;;
3347;SDS011;1687;49.540;8.574;2023-05-31T05:26:32;7.07;;;2.37;;
3347;SDS011;1687;49.540;8.574;2023-05-31T05:28:59;5.70;;;2.17;;
3347;SDS011;1687;49.540;8.574;2023-05-31T05:31:24;9.20;;;2.40;;
3347;SDS011;1687;49.540;8.574;2023-05-31T05:33:50;7.67;;;2.50;;
3347;SDS011;1687;49.540;8.574;2023-05-31T05:36:16;6.83;;;2.83;;
3347;SDS011;1687;49.540;8.574;2023-05-31T05:38:42;7.17;;;3.50;;
3347;SDS011;1687;49.540;8.574;2023-05-31T05:41:07;12.23;;;2.37;;
3347;SDS011;1687;49.540;8.574;2023-05-31T05:43:37;5.40;;;3.37;;
3347;SDS011;1687;49.540;8.574;2023-05-31T05:46:04;6.60;;;2.50;;
3347;SDS011;1687;49.540;8.574;2023-05-31T05:48:30;7.40;;;2.17;;
3347;SDS011;1687;49.540;8.574;2023-05-31T05:50:56;7.13;;;3.30;;
3347;SDS011;1687;49.540;8.574;2023-05-31T05:53:23;8.43;;;3.57;;
3347;SDS011;1687;49.540;8.574;2023-05-31T05:55:49;7.90;;;1.70;;
3347;SDS011;1687;49.540;8.574;2023-05-31T05:58:18;18.83;;;2.30;;
3347;SDS011;1687;49.540;8.574;2023-05-31T06:00:48;4.53;;;2.27;;
3347;SDS011;1687;49.540;8.574;2023-05-31T06:03:14;7.10;;;2.27;;
3347;SDS011;1687;49.540;8.574;2023-05-31T06:05:43;9.97;;;2.80;;
3347;SDS011;1687;49.540;8.574;2023-05-31T06:08:09;14.20;;;2.57;;
3347;SDS011;1687;49.540;8.574;2023-05-31T06:10:35;6.40;;;2.50;;
3347;SDS011;1687;49.540;8.574;2023-05-31T06:13:02;5.97;;;3.03;;
3347;SDS011;1687;49.540;8.574;2023-05-31T06:15:28;5.27;;;2.63;;
3347;SDS011;1687;49.540;8.574;2023-05-31T06:17:53;7.27;;;2.47;;
3347;SDS011;1687;49.540;8.574;2023-05-31T06:20:20;4.80;;;2.17;;
3347;SDS011;1687;49.540;8.574;2023-05-31T06:22:46;5.60;;;2.27;;
3347;SDS011;1687;49.540;8.574;2023-05-31T06:25:12;8.50;;;2.97;;
3347;SDS011;1687;49.540;8.574;2023-05-31T06:27:38;14.73;;;2.40;;
3347;SDS011;1687;49.540;8.574;2023-05-31T06:30:04;6.03;;;2.47;;
3347;SDS011;1687;49.540;8.574;2023-05-31T06:32:31;5.90;;;2.00;;
3347;SDS011;1687;49.540;8.574;2023-05-31T06:34:56;6.53;;;2.50;;
3347;SDS011;1687;49.540;8.574;2023-05-31T06:37:22;11.17;;;2.10;;
3347;SDS011;1687;49.540;8.574;2023-05-31T06:39:48;6.37;;;2.70;;
3347;SDS011;1687;49.540;8.574;2023-05-31T06:42:14;4.73;;;2.43;;
3347;SDS011;1687;49.540;8.574;2023-05-31T06:44:41;8.30;;;2.60;;
3347;SDS011;1687;49.540;8.574;2023-05-31T06:47:07;12.43;;;3.27;;
3347;SDS011;1687;49.540;8.574;2023-05-31T06:49:34;9.40;;;2.37;;
3347;SDS011;1687;49.540;8.574;2023-05-31T06:52:00;4.20;;;2.10;;
3347;SDS011;1687;49.540;8.574;2023-05-31T06:54:27;8.50;;;2.17;;
3347;SDS011;1687;49.540;8.574;2023-05-31T06:56:53;7.50;;;2.30;;
3347;SDS011;1687;49.540;8.574;2023-05-31T06:59:19;3.07;;;1.53;;
3347;SDS011;1687;49.540;8.574;2023-05-31T07:01:45;6.50;;;2.80;;
3347;SDS011;1687;49.540;8.574;2023-05-31T07:04:11;6.57;;;2.17;;
3347;SDS011;1687;49.540;8.574;2023-05-31T07:06:37;7.50;;;2.50;;
3347;SDS011;1687;49.540;8.574;2023-05-31T07:09:03;3.57;;;2.10;;
3347;SDS011;1687;49.540;8.574;2023-05-31T07:11:29;6.13;;;1.90;;
3347;SDS011;1687;49.540;8.574;2023-05-31T07:13:55;14.03;;;2.50;;
3347;SDS011;1687;49.540;8.574;2023-05-31T07:16:26;4.43;;;2.20;;
3347;SDS011;1687;49.540;8.574;2023-05-31T07:18:55;5.40;;;2.20;;
3347;SDS011;1687;49.540;8.574;2023-05-31T07:21:21;4.30;;;2.27;;
3347;SDS011;1687;49.540;8.574;2023-05-31T07:23:47;3.37;;;1.70;;
3347;SDS011;1687;49.540;8.574;2023-05-31T07:26:13;4.83;;;1.67;;
3347;SDS011;1687;49.540;8.574;2023-05-31T07:28:42;6.10;;;1.73;;
3347;SDS011;1687;49.540;8.574;2023-05-31T07:31:09;5.23;;;1.73;;
3347;SDS011;1687;49.540;8.574;2023-05-31T07:33:35;10.23;;;3.53;;
3347;SDS011;1687;49.540;8.574;2023-05-31T07:36:01;3.70;;;1.70;;
3347;SDS011;1687;49.540;8.574;2023-05-31T07:38:26;13.60;;;2.47;;
3347;SDS011;1687;49.540;8.574;2023-05-31T07:40:53;3.90;;;1.97;;
3347;SDS011;1687;49.540;8.574;2023-05-31T07:43:18;5.00;;;2.00;;
3347;SDS011;1687;49.540;8.574;2023-05-31T07:45:47;12.43;;;2.73;;
3347;SDS011;1687;49.540;8.574;2023-05-31T07:48:13;5.53;;;1.80;;
3347;SDS011;1687;49.540;8.574;2023-05-31T07:50:38;9.30;;;1.90;;
3347;SDS011;1687;49.540;8.574;2023-05-31T07:53:04;7.10;;;2.40;;
3347;SDS011;1687;49.540;8.574;2023-05-31T07:55:30;3.77;;;2.37;;
3347;SDS011;1687;49.540;8.574;2023-05-31T07:57:56;4.40;;;2.17;;
3347;SDS011;1687;49.540;8.574;2023-05-31T08:00:22;3.67;;;1.77;;
3347;SDS011;1687;49.540;8.574;2023-05-31T08:02:49;7.40;;;1.90;;
3347;SDS011;1687;49.540;8.574;2023-05-31T08:05:14;8.00;;;2.30;;
3347;SDS011;1687;49.540;8.574;2023-05-31T08:07:40;10.37;;;2.30;;
3347;SDS011;1687;49.540;8.574;2023-05-31T08:10:06;6.53;;;2.40;;
3347;SDS011;1687;49.540;8.574;2023-05-31T08:12:32;3.53;;;1.87;;
3347;SDS011;1687;49.540;8.574;2023-05-31T08:14:59;8.30;;;2.20;;
3347;SDS011;1687;49.540;8.574;2023-05-31T08:17:25;10.87;;;2.13;;
3347;SDS011;1687;49.540;8.574;2023-05-31T08:19:51;4.90;;;1.77;;
3347;SDS011;1687;49.540;8.574;2023-05-31T08:22:17;5.07;;;1.67;;
3347;SDS011;1687;49.540;8.574;2023-05-31T08:24:43;8.13;;;2.00;;
3347;SDS011;1687;49.540;8.574;2023-05-31T08:27:08;6.50;;;2.17;;
3347;SDS011;1687;49.540;8.574;2023-05-31T08:29:34;6.63;;;2.27;;
3347;SDS011;1687;49.540;8.574;2023-05-31T08:32:00;7.90;;;2.63;;
3347;SDS011;1687;49.540;8.574;2023-05-31T08:34:26;3.57;;;1.93;;
3347;SDS011;1687;49.540;8.574;2023-05-31T08:36:52;3.63;;;1.73;;
3347;SDS011;1687;49.540;8.574;2023-05-31T08:39:18;9.43;;;2.37;;
3347;SDS011;1687;49.540;8.574;2023-05-31T08:44:27;6.80;;;2.50;;
3347;SDS011;1687;49.540;8.574;2023-05-31T08:46:59;3.67;;;1.40;;
3347;SDS011;1687;49.540;8.574;2023-05-31T08:49:44;7.70;;;2.07;;
3347;SDS011;1687;49.540;8.574;2023-05-31T08:52:10;13.37;;;2.03;;
3347;SDS011;1687;49.540;8.574;2023-05-31T08:54:37;6.40;;;2.63;;
3347;SDS011;1687;49.540;8.574;2023-05-31T08:57:04;11.13;;;2.17;;
3347;SDS011;1687;49.540;8.574;2023-05-31T08:59:31;8.90;;;2.73;;
3347;SDS011;1687;49.540;8.574;2023-05-31T09:01:59;9.77;;;2.40;;
3347;SDS011;1687;49.540;8.574;2023-05-31T09:04:25;5.20;;;2.07;;
3347;SDS011;1687;49.540;8.574;2023-05-31T09:06:51;7.33;;;1.97;;
3347;SDS011;1687;49.540;8.574;2023-05-31T09:09:17;3.80;;;2.07;;
3347;SDS011;1687;49.540;8.574;2023-05-31T09:11:44;9.37;;;2.43;;
3347;SDS011;1687;49.540;8.574;2023-05-31T09:14:10;4.80;;;2.07;;
3347;SDS011;1687;49.540;8.574;2023-05-31T09:16:36;3.10;;;2.00;;
3347;SDS011;1687;49.540;8.574;2023-05-31T09:19:04;3.00;;;1.80;;
3347;SDS011;1687;49.540;8.574;2023-05-31T09:21:37;4.63;;;2.00;;
3347;SDS011;1687;49.540;8.574;2023-05-31T09:24:08;5.60;;;1.87;;
3347;SDS011;1687;49.540;8.574;2023-05-31T09:26:35;10.73;;;2.73;;
3347;SDS011;1687;49.540;8.574;2023-05-31T09:29:13;5.33;;;2.23;;
3347;SDS011;1687;49.540;8.574;2023-05-31T09:31:40;4.77;;;1.53;;
3347;SDS011;1687;49.540;8.574;2023-05-31T09:34:06;4.23;;;1.87;;
3347;SDS011;1687;49.540;8.574;2023-05-31T09:36:55;2.60;;;1.50;;
3347;SDS011;1687;49.540;8.574;2023-05-31T09:39:23;3.17;;;1.60;;
3347;SDS011;1687;49.540;8.574;2023-05-31T09:41:50;6.17;;;1.80;;
3347;SDS011;1687;49.540;8.574;2023-05-31T09:44:16;17.20;;;2.63;;
3347;SDS011;1687;49.540;8.574;2023-05-31T09:46:44;3.50;;;2.07;;
3347;SDS011;1687;49.540;8.574;2023-05-31T09:49:13;4.00;;;1.77;;
3347;SDS011;1687;49.540;8.574;2023-05-31T09:51:39;6.50;;;2.70;;
3347;SDS011;1687;49.540;8.574;2023-05-31T09:54:14;5.63;;;1.70;;
3347;SDS011;1687;49.540;8.574;2023-05-31T09:56:42;7.30;;;2.00;;
3347;SDS011;1687;49.540;8.574;2023-05-31T09:59:09;4.93;;;1.80;;
3347;SDS011;1687;49.540;8.574;2023-05-31T10:01:35;7.07;;;2.03;;
3347;SDS011;1687;49.540;8.574;2023-05-31T10:04:02;11.33;;;1.60;;
3347;SDS011;1687;49.540;8.574;2023-05-31T10:06:30;3.33;;;1.90;;
3347;SDS011;1687;49.540;8.574;2023-05-31T10:09:00;3.20;;;1.60;;
3347;SDS011;1687;49.540;8.574;2023-05-31T10:11:30;4.97;;;2.07;;
3347;SDS011;1687;49.540;8.574;2023-05-31T10:14:22;12.27;;;1.70;;
3347;SDS011;1687;49.540;8.574;2023-05-31T10:16:52;3.30;;;1.77;;
3347;SDS011;1687;49.540;8.574;2023-05-31T10:19:24;5.43;;;1.70;;
3347;SDS011;1687;49.540;8.574;2023-05-31T10:21:58;7.83;;;1.97;;
3347;SDS011;1687;49.540;8.574;2023-05-31T10:24:26;3.60;;;2.20;;
3347;SDS011;1687;49.540;8.574;2023-05-31T10:27:05;3.10;;;1.73;;
3347;SDS011;1687;49.540;8.574;2023-05-31T10:29:36;3.30;;;2.20;;
3347;SDS011;1687;49.540;8.574;2023-05-31T10:32:10;4.03;;;1.93;;
3347;SDS011;1687;49.540;8.574;2023-05-31T10:34:47;5.43;;;1.80;;
3347;SDS011;1687;49.540;8.574;2023-05-31T10:37:14;6.77;;;1.47;;
3347;SDS011;1687;49.540;8.574;2023-05-31T10:39:44;8.93;;;2.30;;
3347;SDS011;1687;49.540;8.574;2023-05-31T10:45:38;12.80;;;1.73;;
3347;SDS011;1687;49.540;8.574;2023-05-31T10:48:14;2.60;;;1.67;;
3347;SDS011;1687;49.540;8.574;2023-05-31T10:50:55;3.20;;;1.63;;
3347;SDS011;1687;49.540;8.574;2023-05-31T10:53:29;21.53;;;2.47;;
3347;SDS011;1687;49.540;8.574;2023-05-31T10:56:02;7.77;;;2.47;;
3347;SDS011;1687;49.540;8.574;2023-05-31T10:58:34;4.30;;;1.90;;
3347;SDS011;1687;49.540;8.574;2023-05-31T11:01:18;5.47;;;1.37;;
3347;SDS011;1687;49.540;8.574;2023-05-31T11:03:49;4.57;;;2.00;;
3347;SDS011;1687;49.540;8.574;2023-05-31T11:06:17;2.80;;;1.73;;
3347;SDS011;1687;49.540;8.574;2023-05-31T11:19:28;3.87;;;1.73;;
3347;SDS011;1687;49.540;8.574;2023-05-31T11:21:56;7.93;;;1.80;;
3347;SDS011;1687;49.540;8.574;2023-05-31T11:24:32;3.00;;;1.43;;
3347;SDS011;1687;49.540;8.574;2023-05-31T11:27:10;11.27;;;2.20;;
3347;SDS011;1687;49.540;8.574;2023-05-31T11:29:54;3.40;;;1.60;;
3347;SDS011;1687;49.540;8.574;2023-05-31T11:32:21;4.77;;;1.80;;
3347;SDS011;1687;49.540;8.574;2023-05-31T11:35:13;5.97;;;2.33;;
3347;SDS011;1687;49.540;8.574;2023-05-31T11:37:40;3.60;;;1.93;;
3347;SDS011;1687;49.540;8.574;2023-05-31T11:40:11;4.97;;;1.90;;
3347;SDS011;1687;49.540;8.574;2023-05-31T11:42:39;2.57;;;1.70;;
3347;SDS011;1687;49.540;8.574;2023-05-31T11:45:07;4.57;;;1.60;;
3347;SDS011;1687;49.540;8.574;2023-05-31T11:47:39;5.33;;;2.00;;
3347;SDS011;1687;49.540;8.574;2023-05-31T11:50:12;3.73;;;1.70;;
3347;SDS011;1687;49.540;8.574;2023-05-31T11:52:42;2.90;;;1.70;;
3347;SDS011;1687;49.540;8.574;2023-05-31T11:55:09;3.27;;;1.50;;
3347;SDS011;1687;49.540;8.574;2023-05-31T11:57:39;11.30;;;1.63;;
3347;SDS011;1687;49.540;8.574;2023-05-31T12:00:10;5.17;;;2.47;;
3347;SDS011;1687;49.540;8.574;2023-05-31T12:02:43;2.90;;;1.43;;
3347;SDS011;1687;49.540;8.574;2023-05-31T12:05:15;2.67;;;1.50;;
3347;SDS011;1687;49.540;8.574;2023-05-31T12:07:41;2.57;;;1.47;;
3347;SDS011;1687;49.540;8.574;2023-05-31T12:10:08;6.73;;;2.33;;
3347;SDS011;1687;49.540;8.574;2023-05-31T12:12:34;6.43;;;1.80;;
3347;SDS011;1687;49.540;8.574;2023-05-31T12:15:02;3.53;;;2.07;;
3347;SDS011;1687;49.540;8.574;2023-05-31T12:17:29;10.20;;;1.40;;
3347;SDS011;1687;49.540;8.574;2023-05-31T12:19:59;3.23;;;1.60;;
3347;SDS011;1687;49.540;8.574;2023-05-31T12:22:25;9.90;;;1.67;;
3347;SDS011;1687;49.540;8.574;2023-05-31T12:24:54;7.37;;;1.70;;
3347;SDS011;1687;49.540;8.574;2023-05-31T12:27:21;4.77;;;1.40;;
3347;SDS011;1687;49.540;8.574;2023-05-31T12:29:49;7.33;;;1.93;;
3347;SDS011;1687;49.540;8.574;2023-05-31T12:32:20;3.20;;;1.60;;
3347;SDS011;1687;49.540;8.574;2023-05-31T12:34:46;4.67;;;2.10;;
3347;SDS011;1687;49.540;8.574;2023-05-31T12:37:12;3.20;;;1.87;;
3347;SDS011;1687;49.540;8.574;2023-05-31T12:39:38;2.30;;;1.20;;
3347;SDS011;1687;49.540;8.574;2023-05-31T12:42:05;6.30;;;1.77;;
3347;SDS011;1687;49.540;8.574;2023-05-31T12:44:31;5.40;;;2.03;;
3347;SDS011;1687;49.540;8.574;2023-05-31T12:46:59;5.03;;;1.30;;
3347;SDS011;1687;49.540;8.574;2023-05-31T12:49:31;2.90;;;1.40;;
3347;SDS011;1687;49.540;8.574;2023-05-31T12:54:35;2.97;;;1.60;;
3347;SDS011;1687;49.540;8.574;2023-05-31T12:57:07;2.93;;;1.60;;
3347;SDS011;1687;49.540;8.574;2023-05-31T12:59:34;2.60;;;1.33;;
3347;SDS011;1687;49.540;8.574;2023-05-31T13:02:01;7.80;;;1.83;;
3347;SDS011;1687;49.540;8.574;2023-05-31T13:04:29;12.13;;;1.60;;
3347;SDS011;1687;49.540;8.574;2023-05-31T13:06:55;4.43;;;1.83;;
3347;SDS011;1687;49.540;8.574;2023-05-31T13:09:24;5.63;;;1.70;;
3347;SDS011;1687;49.540;8.574;2023-05-31T13:11:50;6.57;;;2.30;;
3347;SDS011;1687;49.540;8.574;2023-05-31T13:14:17;6.30;;;1.70;;
3347;SDS011;1687;49.540;8.574;2023-05-31T13:16:44;5.60;;;1.50;;
3347;SDS011;1687;49.540;8.574;2023-05-31T13:19:11;18.90;;;2.10;;
3347;SDS011;1687;49.540;8.574;2023-05-31T13:21:37;6.03;;;1.67;;
3347;SDS011;1687;49.540;8.574;2023-05-31T13:24:04;6.93;;;1.30;;
3347;SDS011;1687;49.540;8.574;2023-05-31T13:26:31;2.90;;;1.40;;
3347;SDS011;1687;49.540;8.574;2023-05-31T13:28:58;5.53;;;1.40;;
3347;SDS011;1687;49.540;8.574;2023-05-31T13:31:26;3.63;;;1.30;;
3347;SDS011;1687;49.540;8.574;2023-05-31T13:33:53;2.90;;;1.40;;
3347;SDS011;1687;49.540;8.574;2023-05-31T13:36:20;8.07;;;1.40;;
3347;SDS011;1687;49.540;8.574;2023-05-31T13:38:47;4.83;;;1.40;;
3347;SDS011;1687;49.540;8.574;2023-05-31T13:41:14;10.07;;;1.50;;
3347;SDS011;1687;49.540;8.574;2023-05-31T13:43:40;2.70;;;1.30;;
3347;SDS011;1687;49.540;8.574;2023-05-31T13:46:06;2.47;;;1.40;;
3347;SDS011;1687;49.540;8.574;2023-05-31T13:48:36;3.60;;;1.83;;
3347;SDS011;1687;49.540;8.574;2023-05-31T13:51:04;2.43;;;1.10;;
3347;SDS011;1687;49.540;8.574;2023-05-31T13:53:31;2.20;;;1.37;;
3347;SDS011;1687;49.540;8.574;2023-05-31T13:55:57;2.90;;;1.17;;
3347;SDS011;1687;49.540;8.574;2023-05-31T13:58:23;2.73;;;1.33;;
3347;SDS011;1687;49.540;8.574;2023-05-31T14:00:49;1.67;;;1.10;;
3347;SDS011;1687;49.540;8.574;2023-05-31T14:03:15;3.40;;;1.50;;
3347;SDS011;1687;49.540;8.574;2023-05-31T14:05:42;2.90;;;1.40;;
3347;SDS011;1687;49.540;8.574;2023-05-31T14:08:15;1.10;;;0.83;;
3347;SDS011;1687;49.540;8.574;2023-05-31T14:10:41;1.23;;;1.00;;
3347;SDS011;1687;49.540;8.574;2023-05-31T14:13:07;2.60;;;1.20;;
3347;SDS011;1687;49.540;8.574;2023-05-31T14:15:33;1.20;;;1.10;;
3347;SDS011;1687;49.540;8.574;2023-05-31T14:17:59;2.83;;;0.90;;
3347;SDS011;1687;49.540;8.574;2023-05-31T14:20:25;1.80;;;1.00;;
3347;SDS011;1687;49.540;8.574;2023-05-31T14:22:51;1.35;;;0.88;;
3347;SDS011;1687;49.540;8.574;2023-05-31T14:25:16;1.20;;;1.10;;
3347;SDS011;1687;49.540;8.574;2023-05-31T14:27:42;11.80;;;1.27;;
3347;SDS011;1687;49.540;8.574;2023-05-31T14:30:08;4.10;;;0.80;;
3347;SDS011;1687;49.540;8.574;2023-05-31T14:32:34;2.92;;;1.13;;
3347;SDS011;1687;49.540;8.574;2023-05-31T14:35:00;2.55;;;0.98;;
3347;SDS011;1687;49.540;8.574;2023-05-31T14:37:26;3.13;;;1.20;;
3347;SDS011;1687;49.540;8.574;2023-05-31T14:39:51;1.55;;;0.80;;
3347;SDS011;1687;49.540;8.574;2023-05-31T14:42:17;1.77;;;0.75;;
3347;SDS011;1687;49.540;8.574;2023-05-31T14:44:43;0.95;;;0.80;;
3347;SDS011;1687;49.540;8.574;2023-05-31T14:47:09;0.95;;;0.90;;
3347;SDS011;1687;49.540;8.574;2023-05-31T14:49:35;1.42;;;0.85;;
3347;SDS011;1687;49.540;8.574;2023-05-31T14:52:01;2.10;;;0.90;;
3347;SDS011;1687;49.540;8.574;2023-05-31T14:54:27;1.55;;;1.40;;
3347;SDS011;1687;49.540;8.574;2023-05-31T14:56:52;4.55;;;0.68;;
3347;SDS011;1687;49.540;8.574;2023-05-31T14:59:18;0.70;;;0.70;;
3347;SDS011;1687;49.540;8.574;2023-05-31T15:01:44;2.10;;;0.90;;
3347;SDS011;1687;49.540;8.574;2023-05-31T15:04:10;3.85;;;1.55;;
3347;SDS011;1687;49.540;8.574;2023-05-31T15:06:40;0.80;;;0.80;;
3347;SDS011;1687;49.540;8.574;2023-05-31T15:09:07;1.73;;;0.70;;
3347;SDS011;1687;49.540;8.574;2023-05-31T15:11:35;5.82;;;0.73;;
3347;SDS011;1687;49.540;8.574;2023-05-31T15:14:04;1.00;;;0.90;;
3347;SDS011;1687;49.540;8.574;2023-05-31T15:16:31;1.00;;;0.88;;
3347;SDS011;1687;49.540;8.574;2023-05-31T15:18:57;1.60;;;1.50;;
3347;SDS011;1687;49.540;8.574;2023-05-31T15:21:24;3.92;;;1.10;;
3347;SDS011;1687;49.540;8.574;2023-05-31T15:23:49;2.35;;;1.10;;
3347;SDS011;1687;49.540;8.574;2023-05-31T15:26:16;1.65;;;0.88;;
3347;SDS011;1687;49.540;8.574;2023-05-31T15:28:43;1.10;;;1.00;;
3347;SDS011;1687;49.540;8.574;2023-05-31T15:31:09;1.60;;;0.60;;
3347;SDS011;1687;49.540;8.574;2023-05-31T15:33:35;1.25;;;0.80;;
3347;SDS011;1687;49.540;8.574;2023-05-31T15:36:01;1.15;;;0.90;;
3347;SDS011;1687;49.540;8.574;2023-05-31T15:38:28;1.05;;;1.05;;
3347;SDS011;1687;49.540;8.574;2023-05-31T15:40:53;9.48;;;0.88;;
3347;SDS011;1687;49.540;8.574;2023-05-31T15:43:25;3.78;;;1.60;;